Station History

Weather Underground - logo

Station Historical Data
Daily Summary for January 4, 2018 Units:  Both    English   Metric
« Previous Day
Next Day »
Daily Weekly Monthly Yearly Custom
  High: Low: Average:
Temperature: 66.6 °F /  19.2 °C 49.6 °F /  9.8 °C 56.8 °F /  13.8 °C
Dew Point: 57.5 °F /  14.2 °C 42.6 °F /  5.9 °C 51.4 °F /  10.8 °C
Humidity: 96 % 67 % 82 %
Wind Speed: 5.8 mph /  9.3 km/h - 1 mph /  1.6 km/h
Wind Gust: 5.8 mph /  9.3 km/h - -
Wind:- - West
Pressure: 30.20 in /  1022.6 hPa 30.05 in /  1017.5 hPa -
Precipitation: 0.01 in /  0.25 mm    
Historical Graphs
 
 
Tabular Data for January 4, 2018
Time Temperature Dew Point Pressure Wind Wind Speed Wind Gust Humidity Rainfall Rate (Hourly)
00:02 49.6 °F /  9.8 °C 45.3 °F /  7.4 °C 30.05 in /  1017.5 hPa East 1.2 mph /  1.9 km/h   85 % 0.00 in /  0 mm
00:04 49.6 °F /  9.8 °C 45.3 °F /  7.4 °C 30.05 in /  1017.5 hPa NW 1.0 mph /  1.6 km/h 1.0 mph /  1.6 km/h 85 % 0.00 in /  0 mm
00:05 49.6 °F /  9.8 °C 45.3 °F /  7.4 °C 30.05 in /  1017.5 hPa NW 1.2 mph /  1.9 km/h 1.2 mph /  1.9 km/h 85 % 0.00 in /  0 mm
00:07 49.7 °F /  9.8 °C 45.4 °F /  7.4 °C 30.05 in /  1017.5 hPa Calm     85 % 0.00 in /  0 mm
00:12 49.8 °F /  9.9 °C 45.2 °F /  7.3 °C 30.05 in /  1017.5 hPa Calm     84 % 0.00 in /  0 mm
00:16 50.3 °F /  10.2 °C 45.3 °F /  7.4 °C 30.05 in /  1017.5 hPa NNW 2.3 mph /  3.7 km/h 2.3 mph /  3.7 km/h 83 % 0.00 in /  0 mm
00:19 50.4 °F /  10.2 °C 45.1 °F /  7.3 °C 30.05 in /  1017.5 hPa North 1.2 mph /  1.9 km/h 1.2 mph /  1.9 km/h 82 % 0.00 in /  0 mm
00:24 50.6 °F /  10.3 °C 45.3 °F /  7.4 °C 30.05 in /  1017.5 hPa North 2.3 mph /  3.7 km/h 2.3 mph /  3.7 km/h 82 % 0.00 in /  0 mm
00:26 50.6 °F /  10.3 °C 45.0 °F /  7.2 °C 30.05 in /  1017.5 hPa WNW 1.2 mph /  1.9 km/h 1.2 mph /  1.9 km/h 81 % 0.00 in /  0 mm
00:27 50.6 °F /  10.3 °C 45.0 °F /  7.2 °C 30.05 in /  1017.5 hPa WNW 1.2 mph /  1.9 km/h 1.2 mph /  1.9 km/h 81 % 0.00 in /  0 mm
00:32 50.6 °F /  10.3 °C 45.0 °F /  7.2 °C 30.05 in /  1017.5 hPa NNW 1.2 mph /  1.9 km/h   81 % 0.00 in /  0 mm
00:37 50.6 °F /  10.3 °C 45.0 °F /  7.2 °C 30.05 in /  1017.5 hPa NNW 1.2 mph /  1.9 km/h 1.2 mph /  1.9 km/h 81 % 0.00 in /  0 mm
00:38 50.6 °F /  10.3 °C 45.0 °F /  7.2 °C 30.05 in /  1017.5 hPa NNW 2.0 mph /  3.2 km/h 2.0 mph /  3.2 km/h 81 % 0.00 in /  0 mm
00:43 50.6 °F /  10.3 °C 45.0 °F /  7.2 °C 30.05 in /  1017.5 hPa NW 1.2 mph /  1.9 km/h 1.2 mph /  1.9 km/h 81 % 0.00 in /  0 mm
00:48 50.7 °F /  10.4 °C 45.1 °F /  7.3 °C 30.05 in /  1017.5 hPa NW 1.2 mph /  1.9 km/h   81 % 0.00 in /  0 mm
00:50 50.8 °F /  10.4 °C 45.2 °F /  7.3 °C 30.05 in /  1017.5 hPa WNW 1.2 mph /  1.9 km/h 1.2 mph /  1.9 km/h 81 % 0.00 in /  0 mm
00:51 50.8 °F /  10.4 °C 45.2 °F /  7.3 °C 30.05 in /  1017.5 hPa Calm     81 % 0.00 in /  0 mm
00:52 50.8 °F /  10.4 °C 45.2 °F /  7.3 °C 30.05 in /  1017.5 hPa Calm     81 % 0.00 in /  0 mm
00:59 50.8 °F /  10.4 °C 44.9 °F /  7.2 °C 30.05 in /  1017.5 hPa Calm     80 % 0.00 in /  0 mm
01:04 50.8 °F /  10.4 °C 44.5 °F /  6.9 °C 30.05 in /  1017.5 hPa Calm     79 % 0.00 in /  0 mm
01:05 50.8 °F /  10.4 °C 44.5 °F /  6.9 °C 30.05 in /  1017.5 hPa Calm     79 % 0.00 in /  0 mm
01:10 50.9 °F /  10.5 °C 44.6 °F /  7 °C 30.05 in /  1017.5 hPa WNW 1.2 mph /  1.9 km/h   79 % 0.00 in /  0 mm
01:11 51.0 °F /  10.6 °C 44.7 °F /  7.1 °C 30.05 in /  1017.5 hPa Calm     79 % 0.00 in /  0 mm
01:14 51.0 °F /  10.6 °C 44.4 °F /  6.9 °C 30.05 in /  1017.5 hPa Calm     78 % 0.00 in /  0 mm
01:19 50.9 °F /  10.5 °C 44.3 °F /  6.8 °C 30.05 in /  1017.5 hPa Calm     78 % 0.00 in /  0 mm
01:20 50.9 °F /  10.5 °C 44.3 °F /  6.8 °C 30.05 in /  1017.5 hPa Calm     78 % 0.00 in /  0 mm
01:25 51.3 °F /  10.7 °C 44.3 °F /  6.8 °C 30.05 in /  1017.5 hPa Calm     77 % 0.00 in /  0 mm
01:30 51.6 °F /  10.9 °C 43.9 °F /  6.6 °C 30.05 in /  1017.5 hPa NW 2.3 mph /  3.7 km/h 2.3 mph /  3.7 km/h 75 % 0.00 in /  0 mm
01:35 51.7 °F /  10.9 °C 43.7 °F /  6.5 °C 30.05 in /  1017.5 hPa Calm     74 % 0.00 in /  0 mm
01:37 51.8 °F /  11 °C 43.4 °F /  6.3 °C 30.05 in /  1017.5 hPa Calm     73 % 0.00 in /  0 mm
01:42 52.2 °F /  11.2 °C 43.1 °F /  6.2 °C 30.05 in /  1017.5 hPa Calm     71 % 0.00 in /  0 mm
01:43 52.4 °F /  11.3 °C 42.9 °F /  6.1 °C 30.05 in /  1017.5 hPa WNW 1.2 mph /  1.9 km/h   70 % 0.00 in /  0 mm
01:48 53.2 °F /  11.8 °C 42.9 °F /  6.1 °C 30.05 in /  1017.5 hPa Calm     68 % 0.00 in /  0 mm
01:49 53.3 °F /  11.8 °C 42.6 °F /  5.9 °C 30.05 in /  1017.5 hPa Calm     67 % 0.00 in /  0 mm
01:54 53.2 °F /  11.8 °C 43.3 °F /  6.3 °C 30.06 in /  1017.8 hPa Calm     69 % 0.00 in /  0 mm
01:55 53.1 °F /  11.7 °C 43.6 °F /  6.4 °C 30.06 in /  1017.8 hPa Calm     70 % 0.00 in /  0 mm
01:58 52.7 °F /  11.5 °C 43.6 °F /  6.4 °C 30.06 in /  1017.8 hPa Calm     71 % 0.00 in /  0 mm
02:03 52.0 °F /  11.1 °C 43.3 °F /  6.3 °C 30.06 in /  1017.8 hPa Calm     72 % 0.00 in /  0 mm
02:08 51.7 °F /  10.9 °C 43.0 °F /  6.1 °C 30.06 in /  1017.8 hPa Calm     72 % 0.00 in /  0 mm
02:09 51.7 °F /  10.9 °C 43.0 °F /  6.1 °C 30.06 in /  1017.8 hPa Calm     72 % 0.00 in /  0 mm
02:10 51.7 °F /  10.9 °C 43.0 °F /  6.1 °C 30.06 in /  1017.8 hPa Calm     72 % 0.00 in /  0 mm
02:15 51.8 °F /  11 °C 42.7 °F /  5.9 °C 30.06 in /  1017.8 hPa Calm     71 % 0.00 in /  0 mm
02:18 51.7 °F /  10.9 °C 43.0 °F /  6.1 °C 30.06 in /  1017.8 hPa Calm     72 % 0.00 in /  0 mm
02:23 51.6 °F /  10.9 °C 43.6 °F /  6.4 °C 30.07 in /  1018.2 hPa Calm   0.1 mph /  0.2 km/h 74 % 0.00 in /  0 mm
02:28 51.4 °F /  10.8 °C 43.4 °F /  6.3 °C 30.07 in /  1018.2 hPa Calm     74 % 0.00 in /  0 mm
02:32 51.3 °F /  10.7 °C 43.6 °F /  6.4 °C 30.07 in /  1018.2 hPa Calm     75 % 0.00 in /  0 mm
02:34 51.3 °F /  10.7 °C 43.6 °F /  6.4 °C 30.07 in /  1018.2 hPa Calm     75 % 0.00 in /  0 mm
02:39 51.2 °F /  10.7 °C 44.6 °F /  7 °C 30.06 in /  1017.8 hPa Calm     78 % 0.00 in /  0 mm
02:43 51.2 °F /  10.7 °C 44.9 °F /  7.2 °C 30.07 in /  1018.2 hPa Calm     79 % 0.00 in /  0 mm
02:44 51.2 °F /  10.7 °C 44.9 °F /  7.2 °C 30.07 in /  1018.2 hPa Calm     79 % 0.00 in /  0 mm
02:48 51.2 °F /  10.7 °C 45.6 °F /  7.6 °C 30.07 in /  1018.2 hPa Calm     81 % 0.00 in /  0 mm
02:50 51.1 °F /  10.6 °C 45.5 °F /  7.5 °C 30.07 in /  1018.2 hPa Calm     81 % 0.00 in /  0 mm
02:55 50.8 °F /  10.4 °C 45.5 °F /  7.5 °C 30.08 in /  1018.5 hPa Calm     82 % 0.00 in /  0 mm
03:00 50.7 °F /  10.4 °C 45.7 °F /  7.6 °C 30.08 in /  1018.5 hPa Calm     83 % 0.00 in /  0 mm
03:01 50.6 °F /  10.3 °C 45.6 °F /  7.6 °C 30.08 in /  1018.5 hPa Calm     83 % 0.00 in /  0 mm
03:06 50.7 °F /  10.4 °C 45.4 °F /  7.4 °C 30.08 in /  1018.5 hPa Calm     82 % 0.00 in /  0 mm
03:12 51.1 °F /  10.6 °C 45.1 °F /  7.3 °C 30.08 in /  1018.5 hPa NW 1.2 mph /  1.9 km/h 1.2 mph /  1.9 km/h 80 % 0.00 in /  0 mm
03:14 51.4 °F /  10.8 °C 45.1 °F /  7.3 °C 30.08 in /  1018.5 hPa NW 3.5 mph /  5.6 km/h 3.5 mph /  5.6 km/h 79 % 0.00 in /  0 mm
03:16 51.5 °F /  10.8 °C 45.2 °F /  7.3 °C 30.08 in /  1018.5 hPa NW 2.0 mph /  3.2 km/h 2.0 mph /  3.2 km/h 79 % 0.00 in /  0 mm
03:21 51.7 °F /  10.9 °C 45.1 °F /  7.3 °C 30.08 in /  1018.5 hPa NW 1.2 mph /  1.9 km/h 1.2 mph /  1.9 km/h 78 % 0.00 in /  0 mm
03:23 51.8 °F /  11 °C 44.8 °F /  7.1 °C 30.09 in /  1018.8 hPa NW 1.2 mph /  1.9 km/h 1.2 mph /  1.9 km/h 77 % 0.00 in /  0 mm
03:28 52.0 °F /  11.1 °C 45.0 °F /  7.2 °C 30.09 in /  1018.8 hPa WNW 2.3 mph /  3.7 km/h 2.3 mph /  3.7 km/h 77 % 0.00 in /  0 mm
03:29 52.0 °F /  11.1 °C 45.4 °F /  7.4 °C 30.08 in /  1018.5 hPa WNW 1.2 mph /  1.9 km/h 1.2 mph /  1.9 km/h 78 % 0.00 in /  0 mm
03:34 51.8 °F /  11 °C 45.5 °F /  7.5 °C 30.09 in /  1018.8 hPa Calm     79 % 0.00 in /  0 mm
03:37 51.7 °F /  10.9 °C 45.4 °F /  7.4 °C 30.09 in /  1018.8 hPa WNW 1.2 mph /  1.9 km/h 1.2 mph /  1.9 km/h 79 % 0.00 in /  0 mm
03:42 51.6 °F /  10.9 °C 45.3 °F /  7.4 °C 30.09 in /  1018.8 hPa Calm     79 % 0.00 in /  0 mm
03:43 51.6 °F /  10.9 °C 45.6 °F /  7.6 °C 30.09 in /  1018.8 hPa Calm     80 % 0.00 in /  0 mm
03:48 51.5 °F /  10.8 °C 45.5 °F /  7.5 °C 30.08 in /  1018.5 hPa Calm     80 % 0.00 in /  0 mm
03:51 51.5 °F /  10.8 °C 45.5 °F /  7.5 °C 30.08 in /  1018.5 hPa Calm     80 % 0.00 in /  0 mm
03:56 51.6 °F /  10.9 °C 46.0 °F /  7.8 °C 30.09 in /  1018.8 hPa WNW 1.2 mph /  1.9 km/h   81 % 0.01 in /  0.25 mm
03:59 51.6 °F /  10.9 °C 46.0 °F /  7.8 °C 30.09 in /  1018.8 hPa WNW 1.2 mph /  1.9 km/h 1.2 mph /  1.9 km/h 81 % 0.01 in /  0.25 mm
04:04 51.9 °F /  11.1 °C 46.3 °F /  7.9 °C 30.09 in /  1018.8 hPa North 2.3 mph /  3.7 km/h 2.3 mph /  3.7 km/h 81 % 0.01 in /  0.25 mm
04:05 51.9 °F /  11.1 °C 46.3 °F /  7.9 °C 30.09 in /  1018.8 hPa NW 2.3 mph /  3.7 km/h 2.3 mph /  3.7 km/h 81 % 0.01 in /  0.25 mm
04:10 52.2 °F /  11.2 °C 46.2 °F /  7.9 °C 30.09 in /  1018.8 hPa Calm   0.1 mph /  0.2 km/h 80 % 0.01 in /  0.25 mm
04:15 52.3 °F /  11.3 °C 46.3 °F /  7.9 °C 30.09 in /  1018.8 hPa WNW 1.0 mph /  1.6 km/h 1.0 mph /  1.6 km/h 80 % 0.01 in /  0.25 mm
04:19 52.4 °F /  11.3 °C 46.4 °F /  8 °C 30.08 in /  1018.5 hPa NW 2.3 mph /  3.7 km/h 2.3 mph /  3.7 km/h 80 % 0.01 in /  0.25 mm
04:21 52.4 °F /  11.3 °C 46.4 °F /  8 °C 30.08 in /  1018.5 hPa NW 1.2 mph /  1.9 km/h 1.2 mph /  1.9 km/h 80 % 0.01 in /  0.25 mm
04:26 52.5 °F /  11.4 °C 46.5 °F /  8.1 °C 30.09 in /  1018.8 hPa WNW 1.2 mph /  1.9 km/h 1.2 mph /  1.9 km/h 80 % 0.01 in /  0.25 mm
04:28 52.4 °F /  11.3 °C 46.7 °F /  8.2 °C 30.09 in /  1018.8 hPa WNW 2.3 mph /  3.7 km/h 2.3 mph /  3.7 km/h 81 % 0.01 in /  0.25 mm
04:33 52.2 °F /  11.2 °C 47.2 °F /  8.4 °C 30.10 in /  1019.2 hPa Calm     83 % 0.01 in /  0.25 mm
04:38 51.8 °F /  11 °C 47.1 °F /  8.4 °C 30.09 in /  1018.8 hPa NW 1.2 mph /  1.9 km/h 1.2 mph /  1.9 km/h 84 % 0.01 in /  0.25 mm
04:40 51.8 °F /  11 °C 47.1 °F /  8.4 °C 30.09 in /  1018.8 hPa WNW 1.2 mph /  1.9 km/h 1.2 mph /  1.9 km/h 84 % 0.01 in /  0.25 mm
04:45 52.0 °F /  11.1 °C 47.3 °F /  8.5 °C 30.09 in /  1018.8 hPa NW 1.2 mph /  1.9 km/h 1.2 mph /  1.9 km/h 84 % 0.01 in /  0.25 mm
04:47 52.0 °F /  11.1 °C 47.3 °F /  8.5 °C 30.09 in /  1018.8 hPa Calm     84 % 0.01 in /  0.25 mm
04:51 52.1 °F /  11.2 °C 47.1 °F /  8.4 °C 30.09 in /  1018.8 hPa NW 3.5 mph /  5.6 km/h 3.5 mph /  5.6 km/h 83 % 0.01 in /  0.25 mm
04:55 52.2 °F /  11.2 °C 47.2 °F /  8.4 °C 30.09 in /  1018.8 hPa NW 1.2 mph /  1.9 km/h   83 % 0.00 in /  0 mm
04:59 52.4 °F /  11.3 °C 46.7 °F /  8.2 °C 30.09 in /  1018.8 hPa Calm     81 % 0.00 in /  0 mm
05:02 52.7 °F /  11.5 °C 47.4 °F /  8.6 °C 30.09 in /  1018.8 hPa NW 3.5 mph /  5.6 km/h 3.5 mph /  5.6 km/h 82 % 0.00 in /  0 mm
05:04 52.6 °F /  11.4 °C 47.3 °F /  8.5 °C 30.09 in /  1018.8 hPa NNW 2.3 mph /  3.7 km/h 2.3 mph /  3.7 km/h 82 % 0.00 in /  0 mm
05:08 52.6 °F /  11.4 °C 46.9 °F /  8.3 °C 30.08 in /  1018.5 hPa NW 2.3 mph /  3.7 km/h 2.3 mph /  3.7 km/h 81 % 0.00 in /  0 mm
05:11 52.7 °F /  11.5 °C 46.7 °F /  8.2 °C 30.08 in /  1018.5 hPa NW 1.2 mph /  1.9 km/h 1.2 mph /  1.9 km/h 80 % 0.00 in /  0 mm
05:15 53.0 °F /  11.7 °C 47.0 °F /  8.3 °C 30.08 in /  1018.5 hPa NW 2.3 mph /  3.7 km/h 2.3 mph /  3.7 km/h 80 % 0.00 in /  0 mm
05:21 53.0 °F /  11.7 °C 47.0 °F /  8.3 °C 30.08 in /  1018.5 hPa NW 1.2 mph /  1.9 km/h   80 % 0.00 in /  0 mm
05:26 53.1 °F /  11.7 °C 46.8 °F /  8.2 °C 30.08 in /  1018.5 hPa NW 1.2 mph /  1.9 km/h 1.2 mph /  1.9 km/h 79 % 0.00 in /  0 mm
05:30 53.2 °F /  11.8 °C 46.5 °F /  8.1 °C 30.08 in /  1018.5 hPa NW 1.2 mph /  1.9 km/h 1.2 mph /  1.9 km/h 78 % 0.00 in /  0 mm
05:35 53.4 °F /  11.9 °C 46.7 °F /  8.2 °C 30.08 in /  1018.5 hPa NW 1.2 mph /  1.9 km/h 1.2 mph /  1.9 km/h 78 % 0.00 in /  0 mm
05:40 53.6 °F /  12 °C 46.6 °F /  8.1 °C 30.09 in /  1018.8 hPa WNW 1.2 mph /  1.9 km/h 1.2 mph /  1.9 km/h 77 % 0.00 in /  0 mm
05:42 53.7 °F /  12.1 °C 47.0 °F /  8.3 °C 30.09 in /  1018.8 hPa WNW 1.2 mph /  1.9 km/h 1.2 mph /  1.9 km/h 78 % 0.00 in /  0 mm
05:45 53.5 °F /  11.9 °C 47.1 °F /  8.4 °C 30.10 in /  1019.2 hPa WSW 1.2 mph /  1.9 km/h 1.2 mph /  1.9 km/h 79 % 0.00 in /  0 mm
05:46 53.4 °F /  11.9 °C 47.0 °F /  8.3 °C 30.10 in /  1019.2 hPa WSW 1.2 mph /  1.9 km/h   79 % 0.00 in /  0 mm
05:51 53.1 °F /  11.7 °C 47.4 °F /  8.6 °C 30.11 in /  1019.5 hPa Calm     81 % 0.00 in /  0 mm
05:54 53.0 °F /  11.7 °C 47.7 °F /  8.7 °C 30.11 in /  1019.5 hPa WNW 1.2 mph /  1.9 km/h 1.2 mph /  1.9 km/h 82 % 0.00 in /  0 mm
05:59 52.9 °F /  11.6 °C 47.9 °F /  8.8 °C 30.12 in /  1019.9 hPa NW 1.2 mph /  1.9 km/h 1.2 mph /  1.9 km/h 83 % 0.00 in /  0 mm
06:04 52.8 °F /  11.6 °C 47.8 °F /  8.8 °C 30.12 in /  1019.9 hPa Calm     83 % 0.00 in /  0 mm
06:09 52.8 °F /  11.6 °C 47.8 °F /  8.8 °C 30.12 in /  1019.9 hPa Calm     83 % 0.00 in /  0 mm
06:14 52.6 °F /  11.4 °C 47.9 °F /  8.8 °C 30.11 in /  1019.5 hPa Calm     84 % 0.00 in /  0 mm
06:15 52.6 °F /  11.4 °C 47.9 °F /  8.8 °C 30.11 in /  1019.5 hPa Calm     84 % 0.00 in /  0 mm
06:19 52.5 °F /  11.4 °C 48.1 °F /  8.9 °C 30.11 in /  1019.5 hPa SE 1.2 mph /  1.9 km/h 1.2 mph /  1.9 km/h 85 % 0.00 in /  0 mm
06:24 52.4 °F /  11.3 °C 48.3 °F /  9.1 °C 30.11 in /  1019.5 hPa Calm     86 % 0.00 in /  0 mm
06:25 52.3 °F /  11.3 °C 48.2 °F /  9 °C 30.12 in /  1019.9 hPa Calm     86 % 0.00 in /  0 mm
06:30 52.2 °F /  11.2 °C 48.1 °F /  8.9 °C 30.13 in /  1020.2 hPa Calm     86 % 0.00 in /  0 mm
06:32 52.1 °F /  11.2 °C 48.0 °F /  8.9 °C 30.13 in /  1020.2 hPa Calm     86 % 0.00 in /  0 mm
06:37 52.1 °F /  11.2 °C 48.3 °F /  9.1 °C 30.13 in /  1020.2 hPa Calm     87 % 0.00 in /  0 mm
06:42 52.0 °F /  11.1 °C 48.3 °F /  9.1 °C 30.13 in /  1020.2 hPa Calm     87 % 0.00 in /  0 mm
06:44 52.0 °F /  11.1 °C 48.3 °F /  9.1 °C 30.13 in /  1020.2 hPa WNW 1.2 mph /  1.9 km/h 1.2 mph /  1.9 km/h 87 % 0.00 in /  0 mm
06:49 52.2 °F /  11.2 °C 48.4 °F /  9.1 °C 30.13 in /  1020.2 hPa NW 3.0 mph /  4.8 km/h 3.0 mph /  4.8 km/h 87 % 0.00 in /  0 mm
06:51 52.3 °F /  11.3 °C 48.2 °F /  9 °C 30.13 in /  1020.2 hPa NW 3.5 mph /  5.6 km/h 3.5 mph /  5.6 km/h 86 % 0.00 in /  0 mm
06:55 52.6 °F /  11.4 °C 48.2 °F /  9 °C 30.13 in /  1020.2 hPa NW 2.3 mph /  3.7 km/h 2.3 mph /  3.7 km/h 85 % 0.00 in /  0 mm
06:57 52.6 °F /  11.4 °C 48.2 °F /  9 °C 30.13 in /  1020.2 hPa NNW 1.2 mph /  1.9 km/h 1.2 mph /  1.9 km/h 85 % 0.00 in /  0 mm
07:02 52.8 °F /  11.6 °C 48.1 °F /  8.9 °C 30.13 in /  1020.2 hPa NW 1.2 mph /  1.9 km/h 1.2 mph /  1.9 km/h 84 % 0.00 in /  0 mm
07:06 53.0 °F /  11.7 °C 48.3 °F /  9.1 °C 30.13 in /  1020.2 hPa NNW 1.2 mph /  1.9 km/h 1.2 mph /  1.9 km/h 84 % 0.00 in /  0 mm
07:11 53.2 °F /  11.8 °C 48.5 °F /  9.2 °C 30.13 in /  1020.2 hPa North 1.2 mph /  1.9 km/h 1.2 mph /  1.9 km/h 84 % 0.00 in /  0 mm
07:17 53.4 °F /  11.9 °C 48.7 °F /  9.3 °C 30.14 in /  1020.5 hPa WNW 1.2 mph /  1.9 km/h   84 % 0.00 in /  0 mm
07:20 53.5 °F /  11.9 °C 48.5 °F /  9.2 °C 30.14 in /  1020.5 hPa WNW 1.2 mph /  1.9 km/h 1.2 mph /  1.9 km/h 83 % 0.00 in /  0 mm
07:21 53.5 °F /  11.9 °C 48.8 °F /  9.3 °C 30.14 in /  1020.5 hPa North 4.0 mph /  6.4 km/h 4.0 mph /  6.4 km/h 84 % 0.00 in /  0 mm
07:23 53.6 °F /  12 °C 48.6 °F /  9.2 °C 30.14 in /  1020.5 hPa NW 3.5 mph /  5.6 km/h 3.5 mph /  5.6 km/h 83 % 0.00 in /  0 mm
07:24 53.6 °F /  12 °C 48.9 °F /  9.4 °C 30.14 in /  1020.5 hPa NW 1.2 mph /  1.9 km/h 1.2 mph /  1.9 km/h 84 % 0.00 in /  0 mm
07:27 53.7 °F /  12.1 °C 49.0 °F /  9.4 °C 30.15 in /  1020.9 hPa NW 1.2 mph /  1.9 km/h 1.2 mph /  1.9 km/h 84 % 0.00 in /  0 mm
07:32 53.7 °F /  12.1 °C 49.0 °F /  9.4 °C 30.15 in /  1020.9 hPa Calm     84 % 0.00 in /  0 mm
07:36 53.6 °F /  12 °C 49.2 °F /  9.6 °C 30.15 in /  1020.9 hPa NW 1.2 mph /  1.9 km/h 1.2 mph /  1.9 km/h 85 % 0.00 in /  0 mm
07:41 53.5 °F /  11.9 °C 49.1 °F /  9.5 °C 30.15 in /  1020.9 hPa North 1.2 mph /  1.9 km/h 1.2 mph /  1.9 km/h 85 % 0.00 in /  0 mm
07:45 53.6 °F /  12 °C 49.2 °F /  9.6 °C 30.16 in /  1021.2 hPa NW 1.2 mph /  1.9 km/h 1.2 mph /  1.9 km/h 85 % 0.00 in /  0 mm
07:48 53.5 °F /  11.9 °C 49.1 °F /  9.5 °C 30.15 in /  1020.9 hPa NNW 2.3 mph /  3.7 km/h 2.3 mph /  3.7 km/h 85 % 0.00 in /  0 mm
07:50 53.5 °F /  11.9 °C 49.1 °F /  9.5 °C 30.15 in /  1020.9 hPa NNW 1.2 mph /  1.9 km/h 1.2 mph /  1.9 km/h 85 % 0.00 in /  0 mm
07:54 53.5 °F /  11.9 °C 49.1 °F /  9.5 °C 30.15 in /  1020.9 hPa Calm     85 % 0.00 in /  0 mm
07:59 53.4 °F /  11.9 °C 49.3 °F /  9.6 °C 30.15 in /  1020.9 hPa ESE 2.3 mph /  3.7 km/h 2.3 mph /  3.7 km/h 86 % 0.00 in /  0 mm
08:04 53.6 °F /  12 °C 49.2 °F /  9.6 °C 30.15 in /  1020.9 hPa Calm     85 % 0.00 in /  0 mm
08:06 53.6 °F /  12 °C 49.2 °F /  9.6 °C 30.15 in /  1020.9 hPa WNW 1.0 mph /  1.6 km/h 1.0 mph /  1.6 km/h 85 % 0.00 in /  0 mm
08:11 53.7 °F /  12.1 °C 49.3 °F /  9.6 °C 30.15 in /  1020.9 hPa Calm     85 % 0.00 in /  0 mm
08:14 53.9 °F /  12.2 °C 49.5 °F /  9.7 °C 30.16 in /  1021.2 hPa WNW 1.2 mph /  1.9 km/h   85 % 0.00 in /  0 mm
08:19 54.0 °F /  12.2 °C 49.6 °F /  9.8 °C 30.16 in /  1021.2 hPa WNW 1.2 mph /  1.9 km/h 1.2 mph /  1.9 km/h 85 % 0.00 in /  0 mm
08:20 54.1 °F /  12.3 °C 49.7 °F /  9.8 °C 30.16 in /  1021.2 hPa WNW 1.2 mph /  1.9 km/h   85 % 0.00 in /  0 mm
08:21 54.1 °F /  12.3 °C 49.7 °F /  9.8 °C 30.16 in /  1021.2 hPa NW 1.2 mph /  1.9 km/h   85 % 0.00 in /  0 mm
08:25 54.2 °F /  12.3 °C 49.8 °F /  9.9 °C 30.16 in /  1021.2 hPa Calm     85 % 0.00 in /  0 mm
08:27 54.3 °F /  12.4 °C 49.9 °F /  9.9 °C 30.16 in /  1021.2 hPa Calm     85 % 0.00 in /  0 mm
08:30 54.4 °F /  12.4 °C 50.0 °F /  10 °C 30.16 in /  1021.2 hPa Calm     85 % 0.00 in /  0 mm
08:35 54.7 °F /  12.6 °C 50.0 °F /  10 °C 30.16 in /  1021.2 hPa NW 2.3 mph /  3.7 km/h 2.3 mph /  3.7 km/h 84 % 0.00 in /  0 mm
08:38 54.9 °F /  12.7 °C 50.2 °F /  10.1 °C 30.17 in /  1021.6 hPa WNW 1.2 mph /  1.9 km/h   84 % 0.00 in /  0 mm
08:40 55.0 °F /  12.8 °C 50.3 °F /  10.2 °C 30.17 in /  1021.6 hPa Calm     84 % 0.00 in /  0 mm
08:45 55.1 °F /  12.8 °C 50.4 °F /  10.2 °C 30.17 in /  1021.6 hPa WNW 1.2 mph /  1.9 km/h 1.2 mph /  1.9 km/h 84 % 0.00 in /  0 mm
08:48 55.1 °F /  12.8 °C 50.4 °F /  10.2 °C 30.17 in /  1021.6 hPa WNW 1.2 mph /  1.9 km/h 1.2 mph /  1.9 km/h 84 % 0.00 in /  0 mm
08:53 55.3 °F /  12.9 °C 50.2 °F /  10.1 °C 30.16 in /  1021.2 hPa WNW 1.2 mph /  1.9 km/h 1.2 mph /  1.9 km/h 83 % 0.00 in /  0 mm
08:57 55.3 °F /  12.9 °C 50.5 °F /  10.3 °C 30.16 in /  1021.2 hPa NW 3.5 mph /  5.6 km/h   84 % 0.00 in /  0 mm
08:59 55.3 °F /  12.9 °C 50.5 °F /  10.3 °C 30.16 in /  1021.2 hPa NW 1.2 mph /  1.9 km/h   84 % 0.00 in /  0 mm
09:04 55.3 °F /  12.9 °C 50.5 °F /  10.3 °C 30.16 in /  1021.2 hPa NW 2.3 mph /  3.7 km/h 2.3 mph /  3.7 km/h 84 % 0.00 in /  0 mm
09:09 55.4 °F /  13 °C 50.6 °F /  10.3 °C 30.16 in /  1021.2 hPa North 1.2 mph /  1.9 km/h 1.2 mph /  1.9 km/h 84 % 0.00 in /  0 mm
09:10 55.4 °F /  13 °C 50.6 °F /  10.3 °C 30.16 in /  1021.2 hPa North 1.2 mph /  1.9 km/h 1.2 mph /  1.9 km/h 84 % 0.00 in /  0 mm
09:15 55.7 °F /  13.2 °C 50.6 °F /  10.3 °C 30.16 in /  1021.2 hPa NW 1.2 mph /  1.9 km/h 1.2 mph /  1.9 km/h 83 % 0.00 in /  0 mm
09:19 55.8 °F /  13.2 °C 50.7 °F /  10.4 °C 30.16 in /  1021.2 hPa NNW 2.0 mph /  3.2 km/h 2.2 mph /  3.5 km/h 83 % 0.00 in /  0 mm
09:22 56.1 °F /  13.4 °C 50.7 °F /  10.4 °C 30.16 in /  1021.2 hPa NW 2.3 mph /  3.7 km/h 2.3 mph /  3.7 km/h 82 % 0.00 in /  0 mm
09:25 56.2 °F /  13.4 °C 50.8 °F /  10.4 °C 30.17 in /  1021.6 hPa NW 2.3 mph /  3.7 km/h 2.3 mph /  3.7 km/h 82 % 0.00 in /  0 mm
09:30 56.6 °F /  13.7 °C 50.5 °F /  10.3 °C 30.17 in /  1021.6 hPa NW 1.2 mph /  1.9 km/h 1.2 mph /  1.9 km/h 80 % 0.00 in /  0 mm
09:31 56.6 °F /  13.7 °C 50.5 °F /  10.3 °C 30.17 in /  1021.6 hPa NW 1.2 mph /  1.9 km/h 1.2 mph /  1.9 km/h 80 % 0.00 in /  0 mm
09:36 57.2 °F /  14 °C 51.1 °F /  10.6 °C 30.17 in /  1021.6 hPa Calm     80 % 0.00 in /  0 mm
09:46 58.6 °F /  14.8 °C 51.8 °F /  11 °C 30.17 in /  1021.6 hPa Calm   0.4 mph /  0.6 km/h 78 % 0.00 in /  0 mm
09:48 58.9 °F /  14.9 °C 51.7 °F /  10.9 °C 30.17 in /  1021.6 hPa WNW 1.2 mph /  1.9 km/h 1.2 mph /  1.9 km/h 77 % 0.00 in /  0 mm
09:53 59.5 °F /  15.3 °C 51.9 °F /  11.1 °C 30.17 in /  1021.6 hPa NNW 1.2 mph /  1.9 km/h   76 % 0.00 in /  0 mm
09:59 60.0 °F /  15.6 °C 51.7 °F /  10.9 °C 30.18 in /  1021.9 hPa Calm     74 % 0.00 in /  0 mm
10:04 60.6 °F /  15.9 °C 52.3 °F /  11.3 °C 30.18 in /  1021.9 hPa East 3.5 mph /  5.6 km/h 3.5 mph /  5.6 km/h 74 % 0.00 in /  0 mm
10:08 61.1 °F /  16.2 °C 52.7 °F /  11.5 °C 30.18 in /  1021.9 hPa SSW 3.5 mph /  5.6 km/h 3.5 mph /  5.6 km/h 74 % 0.00 in /  0 mm
10:13 61.6 °F /  16.4 °C 53.6 °F /  12 °C 30.19 in /  1022.2 hPa South 5.8 mph /  9.3 km/h 5.8 mph /  9.3 km/h 75 % 0.00 in /  0 mm
10:15 61.6 °F /  16.4 °C 54.0 °F /  12.2 °C 30.19 in /  1022.2 hPa SSW 2.3 mph /  3.7 km/h 2.3 mph /  3.7 km/h 76 % 0.00 in /  0 mm
10:20 61.1 °F /  16.2 °C 53.1 °F /  11.7 °C 30.19 in /  1022.2 hPa NNW 2.3 mph /  3.7 km/h 2.3 mph /  3.7 km/h 75 % 0.00 in /  0 mm
10:21 61.0 °F /  16.1 °C 53.0 °F /  11.7 °C 30.19 in /  1022.2 hPa SSE 3.5 mph /  5.6 km/h 3.5 mph /  5.6 km/h 75 % 0.00 in /  0 mm
10:26 60.8 °F /  16 °C 53.5 °F /  11.9 °C 30.18 in /  1021.9 hPa SSW 4.6 mph /  7.4 km/h 4.6 mph /  7.4 km/h 77 % 0.00 in /  0 mm
10:30 60.7 °F /  15.9 °C 53.4 °F /  11.9 °C 30.19 in /  1022.2 hPa NNW 3.5 mph /  5.6 km/h 3.5 mph /  5.6 km/h 77 % 0.00 in /  0 mm
10:35 60.7 °F /  15.9 °C 53.8 °F /  12.1 °C 30.18 in /  1021.9 hPa NNW 3.5 mph /  5.6 km/h 3.5 mph /  5.6 km/h 78 % 0.00 in /  0 mm
10:40 60.3 °F /  15.7 °C 53.8 °F /  12.1 °C 30.18 in /  1021.9 hPa SSW 2.3 mph /  3.7 km/h 2.3 mph /  3.7 km/h 79 % 0.00 in /  0 mm
10:41 60.3 °F /  15.7 °C 53.8 °F /  12.1 °C 30.18 in /  1021.9 hPa SSW 2.3 mph /  3.7 km/h 2.3 mph /  3.7 km/h 79 % 0.00 in /  0 mm
10:42 60.3 °F /  15.7 °C 54.1 °F /  12.3 °C 30.18 in /  1021.9 hPa SSE 1.2 mph /  1.9 km/h 1.2 mph /  1.9 km/h 80 % 0.00 in /  0 mm
10:47 60.3 °F /  15.7 °C 54.1 °F /  12.3 °C 30.18 in /  1021.9 hPa Calm     80 % 0.00 in /  0 mm
10:48 60.3 °F /  15.7 °C 54.4 °F /  12.4 °C 30.18 in /  1021.9 hPa Calm     81 % 0.00 in /  0 mm
10:53 60.3 °F /  15.7 °C 54.4 °F /  12.4 °C 30.18 in /  1021.9 hPa SSW 2.3 mph /  3.7 km/h 2.3 mph /  3.7 km/h 81 % 0.00 in /  0 mm
10:55 60.3 °F /  15.7 °C 54.4 °F /  12.4 °C 30.18 in /  1021.9 hPa SSE 3.5 mph /  5.6 km/h 3.5 mph /  5.6 km/h 81 % 0.00 in /  0 mm
11:01 60.3 °F /  15.7 °C 54.4 °F /  12.4 °C 30.18 in /  1021.9 hPa SE 3.5 mph /  5.6 km/h 3.5 mph /  5.6 km/h 81 % 0.00 in /  0 mm
11:06 60.5 °F /  15.8 °C 54.6 °F /  12.6 °C 30.18 in /  1021.9 hPa South 3.5 mph /  5.6 km/h 3.5 mph /  5.6 km/h 81 % 0.00 in /  0 mm
11:10 60.7 °F /  15.9 °C 54.5 °F /  12.5 °C 30.18 in /  1021.9 hPa SE 3.5 mph /  5.6 km/h 3.5 mph /  5.6 km/h 80 % 0.00 in /  0 mm
11:15 60.9 °F /  16.1 °C 54.7 °F /  12.6 °C 30.18 in /  1021.9 hPa SE 5.8 mph /  9.3 km/h 5.8 mph /  9.3 km/h 80 % 0.00 in /  0 mm
11:19 61.1 °F /  16.2 °C 54.5 °F /  12.5 °C 30.17 in /  1021.6 hPa East 3.5 mph /  5.6 km/h 3.5 mph /  5.6 km/h 79 % 0.00 in /  0 mm
11:20 61.1 °F /  16.2 °C 54.5 °F /  12.5 °C 30.17 in /  1021.6 hPa SSE 3.5 mph /  5.6 km/h 3.5 mph /  5.6 km/h 79 % 0.00 in /  0 mm
11:24 61.1 °F /  16.2 °C 54.5 °F /  12.5 °C 30.17 in /  1021.6 hPa NE 3.5 mph /  5.6 km/h 3.5 mph /  5.6 km/h 79 % 0.00 in /  0 mm
11:29 61.1 °F /  16.2 °C 54.5 °F /  12.5 °C 30.17 in /  1021.6 hPa South 3.5 mph /  5.6 km/h 3.5 mph /  5.6 km/h 79 % 0.00 in /  0 mm
11:34 61.0 °F /  16.1 °C 54.4 °F /  12.4 °C 30.16 in /  1021.2 hPa SSE 3.5 mph /  5.6 km/h 3.5 mph /  5.6 km/h 79 % 0.00 in /  0 mm
11:39 60.9 °F /  16.1 °C 54.3 °F /  12.4 °C 30.16 in /  1021.2 hPa NE 4.6 mph /  7.4 km/h 4.6 mph /  7.4 km/h 79 % 0.00 in /  0 mm
11:45 60.9 °F /  16.1 °C 54.3 °F /  12.4 °C 30.15 in /  1020.9 hPa SE 3.5 mph /  5.6 km/h 3.5 mph /  5.6 km/h 79 % 0.00 in /  0 mm
11:48 60.8 °F /  16 °C 54.2 °F /  12.3 °C 30.15 in /  1020.9 hPa East 4.6 mph /  7.4 km/h 4.6 mph /  7.4 km/h 79 % 0.00 in /  0 mm
11:53 61.0 °F /  16.1 °C 54.1 °F /  12.3 °C 30.15 in /  1020.9 hPa ESE 2.3 mph /  3.7 km/h 2.3 mph /  3.7 km/h 78 % 0.00 in /  0 mm
11:58 61.5 °F /  16.4 °C 54.6 °F /  12.6 °C 30.14 in /  1020.5 hPa East 3.0 mph /  4.8 km/h 3.0 mph /  4.8 km/h 78 % 0.00 in /  0 mm
12:04 62.5 °F /  16.9 °C 54.8 °F /  12.7 °C 30.13 in /  1020.2 hPa SSE 3.5 mph /  5.6 km/h 3.5 mph /  5.6 km/h 76 % 0.00 in /  0 mm
12:05 62.5 °F /  16.9 °C 54.8 °F /  12.7 °C 30.13 in /  1020.2 hPa SSE 3.5 mph /  5.6 km/h 3.5 mph /  5.6 km/h 76 % 0.00 in /  0 mm
12:11 63.8 °F /  17.7 °C 55.7 °F /  13.2 °C 30.13 in /  1020.2 hPa Calm     75 % 0.00 in /  0 mm
12:14 64.5 °F /  18.1 °C 55.7 °F /  13.2 °C 30.13 in /  1020.2 hPa SSW 1.2 mph /  1.9 km/h 1.2 mph /  1.9 km/h 73 % 0.00 in /  0 mm
12:16 65.0 °F /  18.3 °C 56.1 °F /  13.4 °C 30.13 in /  1020.2 hPa SSE 1.2 mph /  1.9 km/h 1.2 mph /  1.9 km/h 73 % 0.00 in /  0 mm
12:17 65.2 °F /  18.4 °C 55.9 °F /  13.3 °C 30.13 in /  1020.2 hPa North 2.3 mph /  3.7 km/h 2.3 mph /  3.7 km/h 72 % 0.00 in /  0 mm
12:21 65.7 °F /  18.7 °C 55.6 °F /  13.1 °C 30.13 in /  1020.2 hPa SSW 3.5 mph /  5.6 km/h 3.5 mph /  5.6 km/h 70 % 0.00 in /  0 mm
12:26 65.8 °F /  18.8 °C 55.3 °F /  12.9 °C 30.13 in /  1020.2 hPa NW 3.5 mph /  5.6 km/h 3.5 mph /  5.6 km/h 69 % 0.00 in /  0 mm
12:31 65.7 °F /  18.7 °C 55.6 °F /  13.1 °C 30.13 in /  1020.2 hPa SSW 5.8 mph /  9.3 km/h 5.8 mph /  9.3 km/h 70 % 0.00 in /  0 mm
12:33 65.7 °F /  18.7 °C 55.6 °F /  13.1 °C 30.13 in /  1020.2 hPa SE 2.3 mph /  3.7 km/h 2.3 mph /  3.7 km/h 70 % 0.00 in /  0 mm
12:38 65.6 °F /  18.7 °C 55.9 °F /  13.3 °C 30.12 in /  1019.9 hPa SSE 3.5 mph /  5.6 km/h 3.5 mph /  5.6 km/h 71 % 0.00 in /  0 mm
12:42 65.5 °F /  18.6 °C 56.2 °F /  13.4 °C 30.12 in /  1019.9 hPa NNE 3.5 mph /  5.6 km/h 3.5 mph /  5.6 km/h 72 % 0.00 in /  0 mm
12:44 65.4 °F /  18.6 °C 56.1 °F /  13.4 °C 30.12 in /  1019.9 hPa NW 2.3 mph /  3.7 km/h 2.3 mph /  3.7 km/h 72 % 0.00 in /  0 mm
12:47 65.3 °F /  18.5 °C 56.0 °F /  13.3 °C 30.12 in /  1019.9 hPa SSE 2.3 mph /  3.7 km/h 2.3 mph /  3.7 km/h 72 % 0.00 in /  0 mm
12:49 65.3 °F /  18.5 °C 56.4 °F /  13.6 °C 30.12 in /  1019.9 hPa SSW 3.5 mph /  5.6 km/h 3.5 mph /  5.6 km/h 73 % 0.00 in /  0 mm
12:54 65.5 °F /  18.6 °C 56.2 °F /  13.4 °C 30.12 in /  1019.9 hPa NNW 3.5 mph /  5.6 km/h 3.5 mph /  5.6 km/h 72 % 0.00 in /  0 mm
12:56 65.3 °F /  18.5 °C 56.4 °F /  13.6 °C 30.12 in /  1019.9 hPa ESE 3.5 mph /  5.6 km/h 3.5 mph /  5.6 km/h 73 % 0.00 in /  0 mm
13:01 65.1 °F /  18.4 °C 56.6 °F /  13.7 °C 30.12 in /  1019.9 hPa NNW 2.3 mph /  3.7 km/h 2.3 mph /  3.7 km/h 74 % 0.00 in /  0 mm
13:06 64.9 °F /  18.3 °C 56.4 °F /  13.6 °C 30.12 in /  1019.9 hPa NNW 3.5 mph /  5.6 km/h 3.5 mph /  5.6 km/h 74 % 0.00 in /  0 mm
13:09 64.6 °F /  18.1 °C 56.9 °F /  13.8 °C 30.12 in /  1019.9 hPa North 2.3 mph /  3.7 km/h   76 % 0.00 in /  0 mm
13:10 64.6 °F /  18.1 °C 56.9 °F /  13.8 °C 30.11 in /  1019.5 hPa North 2.3 mph /  3.7 km/h 2.3 mph /  3.7 km/h 76 % 0.00 in /  0 mm
13:16 64.0 °F /  17.8 °C 56.6 °F /  13.7 °C 30.11 in /  1019.5 hPa NNW 2.3 mph /  3.7 km/h 2.3 mph /  3.7 km/h 77 % 0.00 in /  0 mm
13:18 63.8 °F /  17.7 °C 56.8 °F /  13.8 °C 30.11 in /  1019.5 hPa NW 1.2 mph /  1.9 km/h 1.2 mph /  1.9 km/h 78 % 0.00 in /  0 mm
13:23 64.0 °F /  17.8 °C 56.6 °F /  13.7 °C 30.11 in /  1019.5 hPa NNW 3.5 mph /  5.6 km/h 3.5 mph /  5.6 km/h 77 % 0.00 in /  0 mm
13:27 64.2 °F /  17.9 °C 56.5 °F /  13.6 °C 30.11 in /  1019.5 hPa NE 1.2 mph /  1.9 km/h 1.2 mph /  1.9 km/h 76 % 0.00 in /  0 mm
13:29 64.4 °F /  18 °C 56.7 °F /  13.7 °C 30.11 in /  1019.5 hPa NNW 3.0 mph /  4.8 km/h 3.0 mph /  4.8 km/h 76 % 0.00 in /  0 mm
13:30 64.5 °F /  18.1 °C 56.8 °F /  13.8 °C 30.11 in /  1019.5 hPa WNW 3.5 mph /  5.6 km/h 3.5 mph /  5.6 km/h 76 % 0.00 in /  0 mm
13:33 64.9 °F /  18.3 °C 57.2 °F /  14 °C 30.11 in /  1019.5 hPa ESE 2.3 mph /  3.7 km/h 2.3 mph /  3.7 km/h 76 % 0.00 in /  0 mm
13:35 65.2 °F /  18.4 °C 57.1 °F /  13.9 °C 30.11 in /  1019.5 hPa ESE 2.3 mph /  3.7 km/h 2.3 mph /  3.7 km/h 75 % 0.00 in /  0 mm
13:36 65.4 °F /  18.6 °C 57.3 °F /  14.1 °C 30.11 in /  1019.5 hPa SE 1.2 mph /  1.9 km/h   75 % 0.00 in /  0 mm
13:38 65.4 °F /  18.6 °C 56.9 °F /  13.8 °C 30.11 in /  1019.5 hPa North 2.3 mph /  3.7 km/h 2.3 mph /  3.7 km/h 74 % 0.00 in /  0 mm
13:40 65.3 °F /  18.5 °C 56.8 °F /  13.8 °C 30.11 in /  1019.5 hPa SSE 1.2 mph /  1.9 km/h 1.2 mph /  1.9 km/h 74 % 0.00 in /  0 mm
13:43 65.5 °F /  18.6 °C 57.0 °F /  13.9 °C 30.11 in /  1019.5 hPa South 2.3 mph /  3.7 km/h 2.3 mph /  3.7 km/h 74 % 0.00 in /  0 mm
13:47 65.8 °F /  18.8 °C 56.9 °F /  13.8 °C 30.10 in /  1019.2 hPa SSW 5.8 mph /  9.3 km/h 5.8 mph /  9.3 km/h 73 % 0.00 in /  0 mm
13:48 65.8 °F /  18.8 °C 56.9 °F /  13.8 °C 30.10 in /  1019.2 hPa South 1.2 mph /  1.9 km/h 1.2 mph /  1.9 km/h 73 % 0.00 in /  0 mm
13:50 66.0 °F /  18.9 °C 57.1 °F /  13.9 °C 30.10 in /  1019.2 hPa SE 1.0 mph /  1.6 km/h 1.2 mph /  1.9 km/h 73 % 0.00 in /  0 mm
13:53 66.2 °F /  19 °C 56.9 °F /  13.8 °C 30.10 in /  1019.2 hPa SSE 3.5 mph /  5.6 km/h   72 % 0.00 in /  0 mm
13:59 66.3 °F /  19.1 °C 56.6 °F /  13.7 °C 30.10 in /  1019.2 hPa NNW 2.3 mph /  3.7 km/h 2.3 mph /  3.7 km/h 71 % 0.00 in /  0 mm
14:04 66.0 °F /  18.9 °C 56.3 °F /  13.5 °C 30.10 in /  1019.2 hPa NNW 1.2 mph /  1.9 km/h 1.2 mph /  1.9 km/h 71 % 0.00 in /  0 mm
14:05 65.9 °F /  18.8 °C 56.2 °F /  13.4 °C 30.10 in /  1019.2 hPa WNW 1.2 mph /  1.9 km/h 1.2 mph /  1.9 km/h 71 % 0.00 in /  0 mm
14:09 65.8 °F /  18.8 °C 56.5 °F /  13.6 °C 30.10 in /  1019.2 hPa WNW 1.2 mph /  1.9 km/h   72 % 0.00 in /  0 mm
14:14 65.9 °F /  18.8 °C 56.6 °F /  13.7 °C 30.10 in /  1019.2 hPa NNW 1.0 mph /  1.6 km/h 1.0 mph /  1.6 km/h 72 % 0.00 in /  0 mm
14:15 65.8 °F /  18.8 °C 56.5 °F /  13.6 °C 30.10 in /  1019.2 hPa NNW 2.3 mph /  3.7 km/h 2.3 mph /  3.7 km/h 72 % 0.00 in /  0 mm
14:20 65.9 °F /  18.8 °C 56.6 °F /  13.7 °C 30.09 in /  1018.8 hPa Calm     72 % 0.00 in /  0 mm
14:24 65.7 °F /  18.7 °C 56.4 °F /  13.6 °C 30.09 in /  1018.8 hPa NW 1.2 mph /  1.9 km/h 1.2 mph /  1.9 km/h 72 % 0.00 in /  0 mm
14:29 65.5 °F /  18.6 °C 56.6 °F /  13.7 °C 30.09 in /  1018.8 hPa NW 1.0 mph /  1.6 km/h   73 % 0.00 in /  0 mm
14:34 65.5 °F /  18.6 °C 56.6 °F /  13.7 °C 30.09 in /  1018.8 hPa SSE 1.2 mph /  1.9 km/h 1.2 mph /  1.9 km/h 73 % 0.00 in /  0 mm
14:38 65.6 °F /  18.7 °C 56.7 °F /  13.7 °C 30.09 in /  1018.8 hPa SSE 1.2 mph /  1.9 km/h 1.2 mph /  1.9 km/h 73 % 0.00 in /  0 mm
14:40 65.7 °F /  18.7 °C 57.2 °F /  14 °C 30.09 in /  1018.8 hPa Calm     74 % 0.00 in /  0 mm
14:45 65.9 °F /  18.8 °C 57.0 °F /  13.9 °C 30.09 in /  1018.8 hPa Calm     73 % 0.00 in /  0 mm
14:52 66.2 °F /  19 °C 57.3 °F /  14.1 °C 30.09 in /  1018.8 hPa SSW 1.2 mph /  1.9 km/h 1.2 mph /  1.9 km/h 73 % 0.00 in /  0 mm
14:54 66.3 °F /  19.1 °C 57.0 °F /  13.9 °C 30.09 in /  1018.8 hPa NW 1.2 mph /  1.9 km/h   72 % 0.00 in /  0 mm
14:59 66.6 °F /  19.2 °C 57.3 °F /  14.1 °C 30.09 in /  1018.8 hPa NW 2.3 mph /  3.7 km/h 2.3 mph /  3.7 km/h 72 % 0.00 in /  0 mm
15:04 66.6 °F /  19.2 °C 56.9 °F /  13.8 °C 30.08 in /  1018.5 hPa WNW 1.2 mph /  1.9 km/h 1.2 mph /  1.9 km/h 71 % 0.00 in /  0 mm
15:09 66.6 °F /  19.2 °C 57.3 °F /  14.1 °C 30.08 in /  1018.5 hPa Calm   0.6 mph /  1 km/h 72 % 0.00 in /  0 mm
15:14 66.6 °F /  19.2 °C 57.3 °F /  14.1 °C 30.08 in /  1018.5 hPa WNW 1.2 mph /  1.9 km/h 1.2 mph /  1.9 km/h 72 % 0.00 in /  0 mm
15:25 66.3 °F /  19.1 °C 57.0 °F /  13.9 °C 30.08 in /  1018.5 hPa WNW 2.3 mph /  3.7 km/h 2.3 mph /  3.7 km/h 72 % 0.00 in /  0 mm
15:27 66.2 °F /  19 °C 56.9 °F /  13.8 °C 30.08 in /  1018.5 hPa Calm     72 % 0.00 in /  0 mm
15:32 66.2 °F /  19 °C 56.9 °F /  13.8 °C 30.08 in /  1018.5 hPa NW 1.2 mph /  1.9 km/h 1.2 mph /  1.9 km/h 72 % 0.00 in /  0 mm
15:33 66.1 °F /  18.9 °C 56.8 °F /  13.8 °C 30.08 in /  1018.5 hPa West 1.2 mph /  1.9 km/h 1.2 mph /  1.9 km/h 72 % 0.00 in /  0 mm
15:38 65.9 °F /  18.8 °C 57.0 °F /  13.9 °C 30.08 in /  1018.5 hPa Calm     73 % 0.00 in /  0 mm
15:40 65.8 °F /  18.8 °C 56.9 °F /  13.8 °C 30.08 in /  1018.5 hPa WSW 1.2 mph /  1.9 km/h 1.2 mph /  1.9 km/h 73 % 0.00 in /  0 mm
15:45 65.6 °F /  18.7 °C 57.1 °F /  13.9 °C 30.08 in /  1018.5 hPa WSW 1.2 mph /  1.9 km/h   74 % 0.00 in /  0 mm
15:47 65.6 °F /  18.7 °C 57.1 °F /  13.9 °C 30.08 in /  1018.5 hPa WSW 1.2 mph /  1.9 km/h   74 % 0.00 in /  0 mm
15:51 65.6 °F /  18.7 °C 57.5 °F /  14.2 °C 30.08 in /  1018.5 hPa Calm     75 % 0.00 in /  0 mm
15:53 65.5 °F /  18.6 °C 57.4 °F /  14.1 °C 30.08 in /  1018.5 hPa SSE 1.2 mph /  1.9 km/h   75 % 0.00 in /  0 mm
15:58 65.2 °F /  18.4 °C 57.1 °F /  13.9 °C 30.08 in /  1018.5 hPa South 1.2 mph /  1.9 km/h 1.2 mph /  1.9 km/h 75 % 0.00 in /  0 mm
16:03 65.0 °F /  18.3 °C 57.2 °F /  14 °C 30.08 in /  1018.5 hPa SW 1.2 mph /  1.9 km/h   76 % 0.00 in /  0 mm
16:09 64.8 °F /  18.2 °C 57.1 °F /  13.9 °C 30.08 in /  1018.5 hPa Calm     76 % 0.00 in /  0 mm
16:14 64.7 °F /  18.2 °C 57.3 °F /  14.1 °C 30.08 in /  1018.5 hPa South 1.2 mph /  1.9 km/h 1.2 mph /  1.9 km/h 77 % 0.00 in /  0 mm
16:15 64.6 °F /  18.1 °C 57.2 °F /  14 °C 30.08 in /  1018.5 hPa South 1.2 mph /  1.9 km/h   77 % 0.00 in /  0 mm
16:16 64.6 °F /  18.1 °C 57.2 °F /  14 °C 30.08 in /  1018.5 hPa Calm     77 % 0.00 in /  0 mm
16:21 64.5 °F /  18.1 °C 57.1 °F /  13.9 °C 30.08 in /  1018.5 hPa WSW 1.2 mph /  1.9 km/h 1.2 mph /  1.9 km/h 77 % 0.00 in /  0 mm
16:26 64.6 °F /  18.1 °C 57.2 °F /  14 °C 30.08 in /  1018.5 hPa Calm     77 % 0.00 in /  0 mm
16:31 64.6 °F /  18.1 °C 57.2 °F /  14 °C 30.08 in /  1018.5 hPa Calm     77 % 0.00 in /  0 mm
16:34 64.5 °F /  18.1 °C 57.5 °F /  14.2 °C 30.08 in /  1018.5 hPa Calm     78 % 0.00 in /  0 mm
16:40 64.5 °F /  18.1 °C 57.1 °F /  13.9 °C 30.08 in /  1018.5 hPa Calm     77 % 0.00 in /  0 mm
16:41 64.5 °F /  18.1 °C 57.1 °F /  13.9 °C 30.08 in /  1018.5 hPa Calm     77 % 0.00 in /  0 mm
16:46 64.4 °F /  18 °C 57.4 °F /  14.1 °C 30.08 in /  1018.5 hPa Calm     78 % 0.00 in /  0 mm
16:51 64.3 °F /  17.9 °C 57.3 °F /  14.1 °C 30.09 in /  1018.8 hPa Calm     78 % 0.00 in /  0 mm
16:52 64.3 °F /  17.9 °C 57.3 °F /  14.1 °C 30.09 in /  1018.8 hPa Calm     78 % 0.00 in /  0 mm
16:57 64.1 °F /  17.8 °C 57.1 °F /  13.9 °C 30.09 in /  1018.8 hPa Calm     78 % 0.00 in /  0 mm
17:02 63.8 °F /  17.7 °C 57.2 °F /  14 °C 30.09 in /  1018.8 hPa Calm     79 % 0.00 in /  0 mm
17:07 63.4 °F /  17.4 °C 57.1 °F /  13.9 °C 30.09 in /  1018.8 hPa Calm     80 % 0.00 in /  0 mm
17:11 63.1 °F /  17.3 °C 56.8 °F /  13.8 °C 30.10 in /  1019.2 hPa Calm     80 % 0.00 in /  0 mm
17:16 62.5 °F /  16.9 °C 56.6 °F /  13.7 °C 30.10 in /  1019.2 hPa Calm     81 % 0.00 in /  0 mm
17:21 62.0 °F /  16.7 °C 56.4 °F /  13.6 °C 30.10 in /  1019.2 hPa Calm     82 % 0.00 in /  0 mm
17:22 61.8 °F /  16.6 °C 56.2 °F /  13.4 °C 30.10 in /  1019.2 hPa Calm     82 % 0.00 in /  0 mm
17:27 61.3 °F /  16.3 °C 56.1 °F /  13.4 °C 30.10 in /  1019.2 hPa Calm     83 % 0.00 in /  0 mm
17:32 60.7 °F /  15.9 °C 55.8 °F /  13.2 °C 30.10 in /  1019.2 hPa Calm     84 % 0.00 in /  0 mm
17:34 60.5 °F /  15.8 °C 55.6 °F /  13.1 °C 30.10 in /  1019.2 hPa Calm     84 % 0.00 in /  0 mm
17:39 60.1 °F /  15.6 °C 55.9 °F /  13.3 °C 30.10 in /  1019.2 hPa Calm     86 % 0.00 in /  0 mm
17:40 60.0 °F /  15.6 °C 55.8 °F /  13.2 °C 30.10 in /  1019.2 hPa Calm     86 % 0.00 in /  0 mm
17:41 59.9 °F /  15.5 °C 55.7 °F /  13.2 °C 30.10 in /  1019.2 hPa Calm     86 % 0.00 in /  0 mm
17:46 59.6 °F /  15.3 °C 55.4 °F /  13 °C 30.10 in /  1019.2 hPa Calm     86 % 0.00 in /  0 mm
17:49 59.4 °F /  15.2 °C 55.5 °F /  13.1 °C 30.10 in /  1019.2 hPa Calm     87 % 0.00 in /  0 mm
17:54 59.1 °F /  15.1 °C 55.5 °F /  13.1 °C 30.10 in /  1019.2 hPa Calm     88 % 0.00 in /  0 mm
17:57 58.9 °F /  14.9 °C 55.4 °F /  13 °C 30.10 in /  1019.2 hPa Calm     88 % 0.00 in /  0 mm
18:01 58.6 °F /  14.8 °C 55.1 °F /  12.8 °C 30.10 in /  1019.2 hPa Calm     88 % 0.00 in /  0 mm
18:06 58.2 °F /  14.6 °C 54.7 °F /  12.6 °C 30.10 in /  1019.2 hPa Calm     88 % 0.00 in /  0 mm
18:09 58.0 °F /  14.4 °C 54.5 °F /  12.5 °C 30.10 in /  1019.2 hPa Calm     88 % 0.00 in /  0 mm
18:13 57.7 °F /  14.3 °C 54.5 °F /  12.5 °C 30.10 in /  1019.2 hPa Calm     89 % 0.00 in /  0 mm
18:16 57.5 °F /  14.2 °C 54.3 °F /  12.4 °C 30.10 in /  1019.2 hPa Calm     89 % 0.00 in /  0 mm
18:23 57.2 °F /  14 °C 54.0 °F /  12.2 °C 30.10 in /  1019.2 hPa Calm     89 % 0.00 in /  0 mm
18:28 56.9 °F /  13.8 °C 54.0 °F /  12.2 °C 30.10 in /  1019.2 hPa Calm     90 % 0.00 in /  0 mm
18:29 56.9 °F /  13.8 °C 54.0 °F /  12.2 °C 30.10 in /  1019.2 hPa Calm     90 % 0.00 in /  0 mm
18:30 56.8 °F /  13.8 °C 53.9 °F /  12.2 °C 30.10 in /  1019.2 hPa Calm     90 % 0.00 in /  0 mm
18:36 56.7 °F /  13.7 °C 54.1 °F /  12.3 °C 30.09 in /  1018.8 hPa Calm     91 % 0.00 in /  0 mm
18:39 56.6 °F /  13.7 °C 54.0 °F /  12.2 °C 30.09 in /  1018.8 hPa Calm     91 % 0.00 in /  0 mm
18:44 56.2 °F /  13.4 °C 53.3 °F /  11.8 °C 30.09 in /  1018.8 hPa Calm     90 % 0.00 in /  0 mm
18:49 55.9 °F /  13.3 °C 53.3 °F /  11.8 °C 30.10 in /  1019.2 hPa Calm     91 % 0.00 in /  0 mm
18:54 55.7 °F /  13.2 °C 53.1 °F /  11.7 °C 30.10 in /  1019.2 hPa Calm     91 % 0.00 in /  0 mm
18:59 55.4 °F /  13 °C 52.8 °F /  11.6 °C 30.10 in /  1019.2 hPa Calm     91 % 0.00 in /  0 mm
19:00 55.4 °F /  13 °C 52.8 °F /  11.6 °C 30.10 in /  1019.2 hPa Calm     91 % 0.00 in /  0 mm
19:05 55.0 °F /  12.8 °C 52.4 °F /  11.3 °C 30.10 in /  1019.2 hPa Calm     91 % 0.00 in /  0 mm
19:06 55.0 °F /  12.8 °C 52.4 °F /  11.3 °C 30.10 in /  1019.2 hPa Calm     91 % 0.00 in /  0 mm
19:11 54.8 °F /  12.7 °C 52.2 °F /  11.2 °C 30.10 in /  1019.2 hPa Calm     91 % 0.00 in /  0 mm
19:16 54.8 °F /  12.7 °C 52.5 °F /  11.4 °C 30.11 in /  1019.5 hPa Calm     92 % 0.00 in /  0 mm
19:21 54.6 °F /  12.6 °C 52.3 °F /  11.3 °C 30.11 in /  1019.5 hPa Calm     92 % 0.00 in /  0 mm
19:26 54.4 °F /  12.4 °C 52.1 °F /  11.2 °C 30.11 in /  1019.5 hPa Calm     92 % 0.00 in /  0 mm
19:27 54.4 °F /  12.4 °C 52.1 °F /  11.2 °C 30.11 in /  1019.5 hPa Calm     92 % 0.00 in /  0 mm
19:29 54.4 °F /  12.4 °C 52.1 °F /  11.2 °C 30.11 in /  1019.5 hPa Calm     92 % 0.00 in /  0 mm
19:34 54.5 °F /  12.5 °C 52.5 °F /  11.4 °C 30.11 in /  1019.5 hPa Calm     93 % 0.00 in /  0 mm
19:39 54.5 °F /  12.5 °C 52.5 °F /  11.4 °C 30.11 in /  1019.5 hPa Calm     93 % 0.00 in /  0 mm
19:41 54.5 °F /  12.5 °C 52.5 °F /  11.4 °C 30.11 in /  1019.5 hPa Calm     93 % 0.00 in /  0 mm
19:44 54.5 °F /  12.5 °C 52.5 °F /  11.4 °C 30.11 in /  1019.5 hPa Calm     93 % 0.00 in /  0 mm
19:47 54.4 °F /  12.4 °C 52.4 °F /  11.3 °C 30.11 in /  1019.5 hPa Calm     93 % 0.00 in /  0 mm
19:52 54.3 °F /  12.4 °C 52.3 °F /  11.3 °C 30.11 in /  1019.5 hPa Calm     93 % 0.00 in /  0 mm
19:53 54.2 °F /  12.3 °C 52.2 °F /  11.2 °C 30.11 in /  1019.5 hPa Calm     93 % 0.00 in /  0 mm
19:58 54.2 °F /  12.3 °C 52.2 °F /  11.2 °C 30.11 in /  1019.5 hPa Calm     93 % 0.00 in /  0 mm
20:03 54.0 °F /  12.2 °C 52.0 °F /  11.1 °C 30.12 in /  1019.9 hPa Calm     93 % 0.00 in /  0 mm
20:09 53.7 °F /  12.1 °C 51.4 °F /  10.8 °C 30.13 in /  1020.2 hPa Calm     92 % 0.00 in /  0 mm
20:14 53.4 °F /  11.9 °C 51.1 °F /  10.6 °C 30.13 in /  1020.2 hPa Calm     92 % 0.00 in /  0 mm
20:16 53.4 °F /  11.9 °C 51.4 °F /  10.8 °C 30.13 in /  1020.2 hPa Calm     93 % 0.00 in /  0 mm
20:21 53.4 °F /  11.9 °C 51.4 °F /  10.8 °C 30.14 in /  1020.5 hPa Calm     93 % 0.00 in /  0 mm
20:22 53.4 °F /  11.9 °C 51.4 °F /  10.8 °C 30.14 in /  1020.5 hPa Calm     93 % 0.00 in /  0 mm
20:27 53.4 °F /  11.9 °C 51.4 °F /  10.8 °C 30.13 in /  1020.2 hPa Calm     93 % 0.00 in /  0 mm
20:30 53.3 °F /  11.8 °C 51.3 °F /  10.7 °C 30.13 in /  1020.2 hPa Calm     93 % 0.00 in /  0 mm
20:35 53.2 °F /  11.8 °C 51.2 °F /  10.7 °C 30.14 in /  1020.5 hPa Calm     93 % 0.00 in /  0 mm
20:36 53.1 °F /  11.7 °C 51.1 °F /  10.6 °C 30.14 in /  1020.5 hPa Calm     93 % 0.00 in /  0 mm
20:38 53.1 °F /  11.7 °C 51.1 °F /  10.6 °C 30.14 in /  1020.5 hPa Calm     93 % 0.00 in /  0 mm
20:43 52.9 °F /  11.6 °C 50.9 °F /  10.5 °C 30.14 in /  1020.5 hPa Calm     93 % 0.00 in /  0 mm
20:45 52.8 °F /  11.6 °C 50.8 °F /  10.4 °C 30.14 in /  1020.5 hPa Calm     93 % 0.00 in /  0 mm
20:50 52.8 °F /  11.6 °C 51.1 °F /  10.6 °C 30.15 in /  1020.9 hPa Calm     94 % 0.00 in /  0 mm
20:53 52.9 °F /  11.6 °C 51.2 °F /  10.7 °C 30.16 in /  1021.2 hPa Calm     94 % 0.00 in /  0 mm
20:58 53.0 °F /  11.7 °C 51.3 °F /  10.7 °C 30.16 in /  1021.2 hPa Calm     94 % 0.00 in /  0 mm
21:01 53.0 °F /  11.7 °C 51.3 °F /  10.7 °C 30.17 in /  1021.6 hPa Calm     94 % 0.00 in /  0 mm
21:06 52.6 °F /  11.4 °C 50.6 °F /  10.3 °C 30.17 in /  1021.6 hPa Calm     93 % 0.00 in /  0 mm
21:11 52.4 °F /  11.3 °C 50.7 °F /  10.4 °C 30.18 in /  1021.9 hPa Calm     94 % 0.00 in /  0 mm
21:14 52.4 °F /  11.3 °C 50.7 °F /  10.4 °C 30.18 in /  1021.9 hPa Calm     94 % 0.00 in /  0 mm
21:20 52.6 °F /  11.4 °C 50.9 °F /  10.5 °C 30.18 in /  1021.9 hPa Calm     94 % 0.00 in /  0 mm
21:23 52.7 °F /  11.5 °C 51.0 °F /  10.6 °C 30.18 in /  1021.9 hPa Calm     94 % 0.00 in /  0 mm
21:28 52.8 °F /  11.6 °C 51.4 °F /  10.8 °C 30.18 in /  1021.9 hPa Calm     95 % 0.00 in /  0 mm
21:30 52.9 °F /  11.6 °C 51.5 °F /  10.8 °C 30.18 in /  1021.9 hPa Calm     95 % 0.00 in /  0 mm
21:35 53.2 °F /  11.8 °C 51.8 °F /  11 °C 30.18 in /  1021.9 hPa Calm     95 % 0.00 in /  0 mm
21:39 53.4 °F /  11.9 °C 52.0 °F /  11.1 °C 30.18 in /  1021.9 hPa Calm     95 % 0.00 in /  0 mm
21:44 53.7 °F /  12.1 °C 52.3 °F /  11.3 °C 30.19 in /  1022.2 hPa Calm     95 % 0.00 in /  0 mm
21:45 53.7 °F /  12.1 °C 52.3 °F /  11.3 °C 30.19 in /  1022.2 hPa Calm     95 % 0.00 in /  0 mm
21:52 53.8 °F /  12.1 °C 52.4 °F /  11.3 °C 30.19 in /  1022.2 hPa Calm     95 % 0.00 in /  0 mm
21:57 54.1 °F /  12.3 °C 53.0 °F /  11.7 °C 30.20 in /  1022.6 hPa Calm     96 % 0.00 in /  0 mm
21:58 54.2 °F /  12.3 °C 53.1 °F /  11.7 °C 30.20 in /  1022.6 hPa Calm     96 % 0.00 in /  0 mm
22:03 54.5 °F /  12.5 °C 53.4 °F /  11.9 °C 30.19 in /  1022.2 hPa Calm     96 % 0.00 in /  0 mm
22:08 54.7 °F /  12.6 °C 53.6 °F /  12 °C 30.20 in /  1022.6 hPa Calm     96 % 0.00 in /  0 mm
22:10 54.8 °F /  12.7 °C 53.7 °F /  12.1 °C 30.20 in /  1022.6 hPa Calm     96 % 0.00 in /  0 mm
22:14 55.0 °F /  12.8 °C 53.9 °F /  12.2 °C 30.20 in /  1022.6 hPa Calm     96 % 0.00 in /  0 mm
22:15 55.1 °F /  12.8 °C 54.0 °F /  12.2 °C 30.20 in /  1022.6 hPa Calm     96 % 0.00 in /  0 mm
22:20 55.8 °F /  13.2 °C 54.7 °F /  12.6 °C 30.20 in /  1022.6 hPa WNW 1.2 mph /  1.9 km/h   96 % 0.00 in /  0 mm
22:24 55.9 °F /  13.3 °C 54.8 °F /  12.7 °C 30.20 in /  1022.6 hPa Calm     96 % 0.00 in /  0 mm
22:27 56.0 °F /  13.3 °C 54.9 °F /  12.7 °C 30.20 in /  1022.6 hPa Calm     96 % 0.00 in /  0 mm
22:31 56.0 °F /  13.3 °C 54.6 °F /  12.6 °C 30.20 in /  1022.6 hPa Calm     95 % 0.00 in /  0 mm
22:36 55.9 °F /  13.3 °C 54.5 °F /  12.5 °C 30.20 in /  1022.6 hPa Calm     95 % 0.00 in /  0 mm
22:41 56.0 °F /  13.3 °C 54.6 °F /  12.6 °C 30.20 in /  1022.6 hPa Calm     95 % 0.00 in /  0 mm
22:46 56.2 °F /  13.4 °C 54.8 °F /  12.7 °C 30.20 in /  1022.6 hPa Calm     95 % 0.00 in /  0 mm
22:51 56.3 °F /  13.5 °C 54.6 °F /  12.6 °C 30.20 in /  1022.6 hPa Calm     94 % 0.00 in /  0 mm
22:56 56.4 °F /  13.6 °C 54.7 °F /  12.6 °C 30.19 in /  1022.2 hPa Calm     94 % 0.00 in /  0 mm
23:02 56.6 °F /  13.7 °C 54.9 °F /  12.7 °C 30.20 in /  1022.6 hPa Calm     94 % 0.00 in /  0 mm
23:05 56.6 °F /  13.7 °C 54.9 °F /  12.7 °C 30.19 in /  1022.2 hPa WNW 1.2 mph /  1.9 km/h 1.2 mph /  1.9 km/h 94 % 0.00 in /  0 mm
23:10 56.8 °F /  13.8 °C 55.1 °F /  12.8 °C 30.20 in /  1022.6 hPa Calm     94 % 0.00 in /  0 mm
23:11 56.8 °F /  13.8 °C 55.1 °F /  12.8 °C 30.20 in /  1022.6 hPa Calm     94 % 0.00 in /  0 mm
23:16 56.9 °F /  13.8 °C 55.2 °F /  12.9 °C 30.20 in /  1022.6 hPa NW 1.2 mph /  1.9 km/h 1.2 mph /  1.9 km/h 94 % 0.00 in /  0 mm
23:23 57.1 °F /  13.9 °C 55.1 °F /  12.8 °C 30.19 in /  1022.2 hPa NW 1.2 mph /  1.9 km/h 1.2 mph /  1.9 km/h 93 % 0.00 in /  0 mm
23:28 57.0 °F /  13.9 °C 55.0 °F /  12.8 °C 30.19 in /  1022.2 hPa Calm     93 % 0.00 in /  0 mm
23:32 56.9 °F /  13.8 °C 54.9 °F /  12.7 °C 30.19 in /  1022.2 hPa Calm     93 % 0.00 in /  0 mm
23:34 56.9 °F /  13.8 °C 54.9 °F /  12.7 °C 30.19 in /  1022.2 hPa Calm     93 % 0.00 in /  0 mm
23:39 56.6 °F /  13.7 °C 54.6 °F /  12.6 °C 30.19 in /  1022.2 hPa Calm     93 % 0.00 in /  0 mm
23:41 56.5 °F /  13.6 °C 54.2 °F /  12.3 °C 30.18 in /  1021.9 hPa Calm     92 % 0.00 in /  0 mm
23:44 56.2 °F /  13.4 °C 53.9 °F /  12.2 °C 30.18 in /  1021.9 hPa Calm     92 % 0.00 in /  0 mm
23:49 55.9 °F /  13.3 °C 53.9 °F /  12.2 °C 30.18 in /  1021.9 hPa Calm     93 % 0.00 in /  0 mm
23:51 55.8 °F /  13.2 °C 53.8 °F /  12.1 °C 30.18 in /  1021.9 hPa Calm     93 % 0.00 in /  0 mm
23:56 55.4 °F /  13 °C 53.4 °F /  11.9 °C 30.19 in /  1022.2 hPa Calm     93 % 0.00 in /  0 mm
23:57 55.3 °F /  12.9 °C 53.3 °F /  11.8 °C 30.18 in /  1021.9 hPa Calm     93 % 0.00 in /  0 mm
Park Place, Exeter, Tulare County, California, USA
Compliments of Weather Underground - 3.25 mb